createdAt,value
2018-03-28T00:00:11.778Z,48.60
2018-03-28T00:02:39.996Z,48.63
2018-03-28T00:05:09.013Z,49.37
2018-03-28T00:07:37.241Z,48.57
2018-03-28T00:10:05.480Z,48.80
2018-03-28T00:12:33.725Z,49.90
2018-03-28T00:15:02.721Z,48.07
2018-03-28T00:17:30.965Z,50.50
2018-03-28T00:19:59.197Z,50.80
2018-03-28T00:22:27.445Z,48.47
2018-03-28T00:24:55.676Z,49.77
2018-03-28T00:27:23.924Z,49.20
2018-03-28T00:29:52.161Z,47.70
2018-03-28T00:32:20.412Z,49.47
2018-03-28T00:34:48.644Z,49.00
2018-03-28T00:37:16.892Z,49.60
2018-03-28T00:39:45.130Z,51.50
2018-03-28T00:42:13.363Z,50.63
2018-03-28T00:44:41.596Z,52.90
2018-03-28T00:47:10.604Z,51.23
2018-03-28T00:49:38.835Z,49.77
2018-03-28T00:52:07.076Z,49.40
2018-03-28T00:54:35.307Z,49.90
2018-03-28T00:57:04.318Z,49.70
2018-03-28T00:59:32.540Z,50.50
2018-03-28T01:02:00.792Z,49.53
2018-03-28T01:04:29.016Z,50.77
2018-03-28T01:06:58.018Z,49.73
2018-03-28T01:09:27.020Z,48.30
2018-03-28T01:11:55.248Z,51.30
2018-03-28T01:14:23.487Z,48.87
2018-03-28T01:16:51.726Z,49.67
2018-03-28T01:19:20.730Z,51.23
2018-03-28T01:21:48.956Z,49.60
2018-03-28T01:24:17.204Z,49.57
2018-03-28T01:26:45.440Z,49.80
2018-03-28T01:29:14.456Z,50.57
2018-03-28T01:31:42.692Z,50.80
2018-03-28T01:34:11.704Z,50.37
2018-03-28T01:36:39.936Z,50.17
2018-03-28T01:39:08.193Z,50.73
2018-03-28T01:41:36.423Z,53.00
2018-03-28T01:44:04.676Z,49.30
2018-03-28T01:46:33.669Z,51.80
2018-03-28T01:49:02.680Z,51.77
2018-03-28T01:51:30.920Z,53.07
2018-03-28T01:53:59.173Z,51.93
2018-03-28T01:56:27.407Z,52.13
2018-03-28T01:58:55.652Z,51.93
2018-03-28T02:01:23.881Z,51.50
2018-03-28T02:03:52.124Z,51.10
2018-03-28T02:06:20.779Z,52.47
2018-03-28T02:08:49.004Z,52.70
2018-03-28T02:11:17.230Z,50.70
2018-03-28T02:13:45.481Z,52.63
2018-03-28T02:16:13.717Z,51.70
2018-03-28T02:18:41.941Z,52.07
2018-03-28T02:21:10.186Z,51.40
2018-03-28T02:23:38.414Z,52.20
2018-03-28T02:26:08.232Z,51.10
2018-03-28T02:28:36.478Z,51.47
2018-03-28T02:31:04.716Z,50.90
2018-03-28T02:33:32.950Z,53.07
2018-03-28T02:36:01.958Z,52.57
2018-03-28T02:38:30.190Z,51.97
2018-03-28T02:40:58.434Z,51.23
2018-03-28T02:43:26.670Z,52.83
2018-03-28T02:45:54.912Z,50.40
2018-03-28T02:48:23.127Z,50.77
2018-03-28T02:50:51.381Z,50.40
2018-03-28T02:53:20.372Z,50.03
2018-03-28T02:55:49.393Z,50.60
2018-03-28T02:58:17.624Z,50.10
2018-03-28T03:00:46.640Z,50.10
2018-03-28T03:03:14.860Z,50.67
2018-03-28T03:05:43.117Z,50.97
2018-03-28T03:08:11.340Z,51.00
2018-03-28T03:10:40.353Z,50.23
2018-03-28T03:13:08.589Z,50.17
2018-03-28T03:15:36.837Z,51.33
2018-03-28T03:18:05.068Z,51.77
2018-03-28T03:20:33.322Z,49.77
2018-03-28T03:23:01.552Z,50.40
2018-03-28T03:25:29.808Z,50.50
2018-03-28T03:27:58.047Z,50.40
2018-03-28T03:30:27.062Z,51.07
2018-03-28T03:32:55.295Z,49.50
2018-03-28T03:35:23.520Z,49.43
2018-03-28T03:37:51.779Z,49.07
2018-03-28T03:40:20.004Z,49.10
2018-03-28T03:42:48.257Z,48.63
2018-03-28T03:45:16.482Z,49.03
2018-03-28T03:47:45.509Z,47.77
2018-03-28T03:50:13.736Z,49.83
2018-03-28T03:52:41.986Z,50.67
2018-03-28T03:55:10.212Z,45.50
2018-03-28T03:57:38.460Z,49.03
2018-03-28T04:00:06.693Z,49.73
2018-03-28T04:02:34.940Z,49.50
2018-03-28T04:05:03.170Z,47.50
2018-03-28T04:07:31.407Z,48.53
2018-03-28T04:09:59.646Z,49.47
2018-03-28T04:12:28.653Z,49.27
2018-03-28T04:14:56.875Z,50.20
2018-03-28T04:17:25.127Z,49.60
2018-03-28T04:19:53.359Z,49.80
2018-03-28T04:22:22.372Z,48.77
2018-03-28T04:24:50.602Z,49.53
2018-03-28T04:27:18.839Z,48.47
2018-03-28T04:29:47.076Z,47.97
2018-03-28T04:32:15.741Z,47.80
2018-03-28T04:34:43.968Z,48.27
2018-03-28T04:37:12.209Z,48.83
2018-03-28T04:39:40.436Z,48.97
2018-03-28T04:42:08.673Z,47.97
2018-03-28T04:44:36.912Z,47.93
2018-03-28T04:47:05.912Z,47.40
2018-03-28T04:49:34.934Z,49.07
2018-03-28T04:52:03.158Z,49.43
2018-03-28T04:54:31.430Z,50.37
2018-03-28T04:56:59.663Z,47.90
2018-03-28T04:59:27.905Z,49.03
2018-03-28T05:01:56.900Z,48.10
2018-03-28T05:04:25.144Z,47.97
2018-03-28T05:06:53.367Z,48.63
2018-03-28T05:09:21.620Z,49.43
2018-03-28T05:11:50.614Z,48.70
2018-03-28T05:14:18.865Z,48.17
2018-03-28T05:16:47.093Z,49.93
2018-03-28T05:19:15.336Z,48.30
2018-03-28T05:21:43.568Z,50.37
2018-03-28T05:24:11.821Z,50.87
2018-03-28T05:26:40.061Z,49.27
2018-03-28T05:29:08.313Z,49.07
2018-03-28T05:31:36.544Z,48.63
2018-03-28T05:34:04.800Z,50.30
2018-03-28T05:36:33.237Z,49.97
2018-03-28T05:39:02.251Z,49.80
2018-03-28T05:41:30.476Z,47.67
2018-03-28T05:43:58.996Z,49.80
2018-03-28T05:46:27.200Z,50.50
2018-03-28T05:48:55.450Z,49.50
2018-03-28T05:51:23.672Z,48.40
2018-03-28T05:53:51.904Z,46.83
2018-03-28T05:56:20.183Z,47.47
2018-03-28T05:58:49.151Z,48.97
2018-03-28T06:01:18.176Z,49.10
2018-03-28T06:03:46.404Z,49.17
2018-03-28T06:06:15.411Z,47.37
2018-03-28T06:08:44.404Z,49.33
2018-03-28T06:11:12.656Z,47.00
2018-03-28T06:13:40.893Z,48.20
2018-03-28T06:16:09.164Z,47.50
2018-03-28T06:18:37.388Z,47.23
2018-03-28T06:21:06.408Z,48.03
2018-03-28T06:23:34.638Z,48.50
2018-03-28T06:26:02.888Z,48.33
2018-03-28T06:28:31.122Z,46.33
2018-03-28T06:30:59.368Z,48.77
2018-03-28T06:33:28.370Z,46.30
2018-03-28T06:35:57.428Z,47.27
2018-03-28T06:38:25.650Z,47.40
2018-03-28T06:40:53.896Z,47.50
2018-03-28T06:43:22.125Z,46.90
2018-03-28T06:45:50.657Z,47.37
2018-03-28T06:48:19.648Z,46.93
2018-03-28T06:50:48.659Z,48.43
2018-03-28T06:53:16.888Z,47.97
2018-03-28T06:55:45.137Z,46.10
2018-03-28T06:58:13.370Z,46.73
2018-03-28T07:00:42.381Z,48.43
2018-03-28T07:03:10.619Z,47.30
2018-03-28T07:05:38.876Z,45.27
2018-03-28T07:08:07.913Z,48.73
2018-03-28T07:10:36.143Z,45.73
2018-03-28T07:13:04.385Z,46.30
2018-03-28T07:15:32.616Z,45.60
2018-03-28T07:18:01.638Z,46.23
2018-03-28T07:20:29.874Z,47.27
2018-03-28T07:22:58.123Z,47.40
2018-03-28T07:25:26.394Z,46.67
2018-03-28T07:27:54.642Z,46.77
2018-03-28T07:30:22.873Z,46.33
2018-03-28T07:32:51.885Z,46.03
2018-03-28T07:35:20.119Z,48.80
2018-03-28T07:37:48.368Z,47.37
2018-03-28T07:40:16.600Z,46.87
2018-03-28T07:42:45.611Z,46.37
2018-03-28T07:45:13.898Z,46.90
2018-03-28T07:47:42.160Z,43.93
2018-03-28T07:50:10.396Z,45.53
2018-03-28T07:52:38.641Z,43.80
2018-03-28T07:55:06.872Z,44.07
2018-03-28T07:57:35.120Z,43.17
2018-03-28T08:00:04.134Z,40.10
2018-03-28T08:02:33.137Z,42.67
2018-03-28T08:05:01.382Z,39.93
2018-03-28T08:07:29.621Z,37.80
2018-03-28T08:09:57.848Z,39.90
2018-03-28T08:12:26.096Z,41.90
2018-03-28T08:14:54.328Z,38.90
2018-03-28T08:17:22.610Z,39.50
2018-03-28T08:19:51.612Z,40.33
2018-03-28T08:22:21.357Z,40.73
2018-03-28T08:24:50.404Z,40.57
2018-03-28T08:27:18.645Z,40.00
2018-03-28T08:29:46.889Z,39.63
2018-03-28T08:32:16.109Z,40.87
2018-03-28T08:34:44.397Z,40.57
2018-03-28T08:37:13.355Z,39.50
2018-03-28T08:39:47.222Z,39.93
2018-03-28T08:42:15.456Z,40.67
2018-03-28T08:44:43.714Z,41.00
2018-03-28T08:47:12.709Z,41.60
2018-03-28T08:49:41.723Z,39.73
2018-03-28T08:52:09.960Z,40.83
2018-03-28T08:54:38.192Z,40.87
2018-03-28T08:57:06.717Z,43.10
2018-03-28T08:59:34.956Z,44.73
2018-03-28T09:02:03.184Z,45.40
2018-03-28T09:04:31.428Z,44.83
2018-03-28T09:06:59.665Z,43.90
2018-03-28T09:09:27.904Z,42.33
2018-03-28T09:11:56.134Z,43.17
2018-03-28T09:14:24.379Z,44.33
2018-03-28T09:16:52.604Z,43.13
2018-03-28T09:19:21.620Z,45.37
2018-03-28T09:21:49.848Z,44.90
2018-03-28T09:24:18.092Z,48.27
2018-03-28T09:26:46.322Z,49.40
2018-03-28T09:29:15.330Z,47.07
2018-03-28T09:31:43.555Z,43.80
2018-03-28T09:34:11.816Z,47.53
2018-03-28T09:36:40.040Z,45.53
2018-03-28T09:39:09.036Z,47.00
2018-03-28T09:41:38.061Z,48.37
2018-03-28T09:44:06.295Z,49.80
2018-03-28T09:46:35.296Z,47.93
2018-03-28T09:49:03.528Z,46.40
2018-03-28T09:51:31.776Z,45.73
2018-03-28T09:54:00.005Z,45.60
2018-03-28T09:56:29.025Z,47.13
2018-03-28T09:58:57.260Z,47.57
2018-03-28T10:01:30.384Z,46.73
2018-03-28T10:04:04.345Z,48.00
2018-03-28T10:06:32.593Z,47.80
2018-03-28T10:09:00.816Z,47.43
2018-03-28T10:11:30.209Z,42.37
2018-03-28T10:13:58.425Z,43.63
2018-03-28T10:16:26.672Z,41.83
2018-03-28T10:18:54.905Z,39.20
2018-03-28T10:21:23.156Z,40.30
2018-03-28T10:23:51.384Z,42.00
2018-03-28T10:26:20.398Z,36.23
2018-03-28T10:28:48.632Z,37.53
2018-03-28T10:31:16.872Z,35.97
2018-03-28T10:33:45.110Z,31.83
2018-03-28T10:36:13.386Z,33.90
2018-03-28T10:38:42.394Z,33.90
2018-03-28T10:41:10.639Z,34.43
2018-03-28T10:43:39.632Z,33.23
2018-03-28T10:46:08.650Z,32.77
2018-03-28T10:48:36.902Z,33.17
2018-03-28T10:51:06.616Z,32.13
2018-03-28T10:53:34.876Z,33.17
2018-03-28T10:56:03.869Z,32.80
2018-03-28T10:58:32.893Z,34.60
2018-03-28T11:01:01.124Z,35.27
2018-03-28T11:03:30.158Z,34.03
2018-03-28T11:05:58.378Z,33.07
2018-03-28T11:08:26.629Z,34.37
2018-03-28T11:10:54.864Z,31.00
2018-03-28T11:13:23.118Z,31.70
2018-03-28T11:15:52.115Z,29.47
2018-03-28T11:18:21.128Z,29.13
2018-03-28T11:20:49.357Z,27.13
2018-03-28T11:23:17.614Z,31.93
2018-03-28T11:25:45.864Z,21.10
2018-03-28T11:28:14.121Z,20.47
2018-03-28T11:30:42.332Z,19.10
2018-03-28T11:33:10.579Z,18.83
2018-03-28T11:35:38.808Z,18.17
2018-03-28T11:38:07.825Z,20.20
2018-03-28T11:40:36.053Z,18.47
2018-03-28T11:43:04.301Z,19.00
2018-03-28T11:45:32.529Z,20.23
2018-03-28T11:48:01.830Z,20.50
2018-03-28T11:50:30.028Z,20.23
2018-03-28T11:52:58.326Z,20.00
2018-03-28T11:55:27.273Z,18.57
2018-03-28T11:57:56.289Z,19.87
2018-03-28T12:00:24.529Z,19.13
2018-03-28T12:02:53.540Z,18.87
2018-03-28T12:05:21.769Z,20.10
2018-03-28T12:07:50.016Z,20.00
2018-03-28T12:10:18.244Z,20.43
2018-03-28T12:12:47.249Z,19.83
2018-03-28T12:15:15.493Z,19.23
2018-03-28T12:17:43.722Z,19.50
2018-03-28T12:20:11.967Z,18.60
2018-03-28T12:22:40.204Z,19.67
2018-03-28T12:25:08.500Z,18.60
2018-03-28T12:27:36.676Z,18.77
2018-03-28T12:30:05.701Z,19.73
2018-03-28T12:32:33.931Z,19.40
2018-03-28T12:35:02.188Z,20.50
2018-03-28T12:37:30.417Z,20.13
2018-03-28T12:39:58.660Z,19.60
2018-03-28T12:42:27.667Z,18.87
2018-03-28T12:44:55.924Z,18.67
2018-03-28T12:47:24.928Z,19.87
2018-03-28T12:49:54.036Z,19.57
2018-03-28T12:52:22.287Z,18.80
2018-03-28T12:54:50.404Z,20.00
2018-03-28T12:57:18.682Z,19.50
2018-03-28T12:59:46.923Z,19.03
2018-03-28T13:02:15.176Z,18.73
2018-03-28T13:04:43.368Z,19.13
2018-03-28T13:07:11.616Z,18.20
2018-03-28T13:09:40.624Z,18.87
2018-03-28T13:12:09.668Z,18.27
2018-03-28T13:14:37.903Z,19.47
2018-03-28T13:17:06.157Z,19.57
2018-03-28T13:19:35.168Z,18.23
2018-03-28T13:22:03.419Z,18.30
2018-03-28T13:24:32.425Z,17.77
2018-03-28T13:27:01.442Z,21.30
2018-03-28T13:29:29.679Z,23.50
2018-03-28T13:31:58.690Z,25.27
2018-03-28T13:34:26.921Z,25.07
2018-03-28T13:36:55.168Z,25.33
2018-03-28T13:39:23.392Z,25.93
2018-03-28T13:41:52.416Z,27.63
2018-03-28T13:44:20.653Z,27.10
2018-03-28T13:46:49.648Z,27.27
2018-03-28T13:49:18.660Z,28.07
2018-03-28T13:51:46.884Z,28.50
2018-03-28T13:54:15.844Z,29.80
2018-03-28T13:56:44.076Z,30.17
2018-03-28T13:59:13.172Z,30.50
2018-03-28T14:01:42.569Z,30.50
2018-03-28T14:04:10.816Z,32.30
2018-03-28T14:06:39.053Z,32.67
2018-03-28T14:09:07.300Z,32.93
2018-03-28T14:11:36.359Z,33.60
2018-03-28T14:14:04.582Z,31.50
2018-03-28T14:16:32.812Z,33.23
2018-03-28T14:19:01.063Z,35.07
2018-03-28T14:21:29.294Z,35.60
2018-03-28T14:23:58.303Z,34.93
2018-03-28T14:26:26.539Z,35.33
2018-03-28T14:28:54.768Z,36.80
2018-03-28T14:31:23.020Z,34.43
2018-03-28T14:33:51.254Z,35.13
2018-03-28T14:36:19.752Z,34.00
2018-03-28T14:38:47.980Z,35.73
2018-03-28T14:41:16.227Z,34.70
2018-03-28T14:43:44.460Z,35.13
2018-03-28T14:46:12.764Z,35.47
2018-03-28T14:48:40.948Z,37.43
2018-03-28T14:51:09.200Z,38.00
2018-03-28T14:53:38.197Z,39.13
2018-03-28T14:56:06.453Z,38.27
2018-03-28T14:58:35.498Z,39.13
2018-03-28T15:01:03.808Z,39.63
2018-03-28T15:03:32.016Z,40.57
2018-03-28T15:06:00.268Z,39.17
2018-03-28T15:08:29.270Z,39.93
2018-03-28T15:10:58.270Z,38.40
2018-03-28T15:13:27.282Z,37.77
2018-03-28T15:15:55.501Z,37.83
2018-03-28T15:18:23.752Z,37.60
2018-03-28T15:20:51.984Z,37.07
2018-03-28T15:23:20.232Z,36.00
2018-03-28T15:25:48.472Z,34.93
2018-03-28T15:28:16.721Z,35.67
2018-03-28T15:30:44.993Z,35.10
2018-03-28T15:33:13.233Z,35.70
2018-03-28T15:35:42.227Z,36.57
2018-03-28T15:38:11.236Z,34.97
2018-03-28T15:40:39.465Z,35.23
2018-03-28T15:43:07.724Z,35.63
2018-03-28T15:45:35.956Z,36.93
2018-03-28T15:48:04.184Z,34.87
2018-03-28T15:50:32.433Z,37.13
2018-03-28T15:53:00.669Z,28.50
2018-03-28T15:55:29.691Z,38.07
2018-03-28T15:57:57.913Z,36.73
2018-03-28T16:00:26.195Z,34.37
2018-03-28T16:02:55.208Z,33.63
2018-03-28T16:05:23.473Z,33.77
2018-03-28T16:07:52.472Z,33.53
2018-03-28T16:10:20.739Z,32.93
2018-03-28T16:12:49.736Z,33.47
2018-03-28T16:15:18.759Z,34.57
2018-03-28T16:17:46.995Z,32.80
2018-03-28T16:20:16.001Z,34.17
2018-03-28T16:22:44.224Z,33.80
2018-03-28T16:25:12.473Z,32.73
2018-03-28T16:27:40.708Z,33.33
2018-03-28T16:30:09.737Z,31.93
2018-03-28T16:32:37.969Z,28.70
2018-03-28T16:35:07.026Z,30.87
2018-03-28T16:37:35.979Z,25.83
2018-03-28T16:40:04.206Z,24.03
2018-03-28T16:42:32.449Z,25.37
2018-03-28T16:45:01.084Z,24.23
2018-03-28T16:47:29.908Z,24.70
2018-03-28T16:49:58.253Z,25.23
2018-03-28T16:52:26.417Z,23.47
2018-03-28T16:54:55.411Z,24.83
2018-03-28T16:57:24.447Z,25.53
2018-03-28T16:59:52.673Z,24.77
2018-03-28T17:02:21.712Z,27.63
2018-03-28T17:04:49.940Z,26.70
2018-03-28T17:07:18.997Z,25.97
2018-03-28T17:09:47.202Z,30.63
2018-03-28T17:12:15.457Z,25.57
2018-03-28T17:14:43.690Z,24.53
2018-03-28T17:17:11.937Z,24.80
2018-03-28T17:19:40.989Z,23.77
2018-03-28T17:22:09.497Z,24.60
2018-03-28T17:24:37.869Z,25.70
2018-03-28T17:27:06.083Z,28.67
2018-03-28T17:29:34.339Z,27.87
2018-03-28T17:32:02.584Z,24.47
2018-03-28T17:34:30.825Z,25.50
2018-03-28T17:36:59.050Z,27.40
2018-03-28T17:39:28.056Z,26.67
2018-03-28T17:41:56.321Z,24.00
2018-03-28T17:44:25.659Z,22.60
2018-03-28T17:46:54.612Z,23.37
2018-03-28T17:49:23.619Z,21.77
2018-03-28T17:51:51.857Z,23.50
2018-03-28T17:54:20.107Z,21.70
2018-03-28T17:56:48.340Z,19.73
2018-03-28T17:59:16.563Z,20.43
2018-03-28T18:01:44.960Z,21.10
2018-03-28T18:04:13.963Z,22.13
2018-03-28T18:06:42.978Z,21.80
2018-03-28T18:09:11.212Z,19.97
2018-03-28T18:11:39.461Z,22.17
2018-03-28T18:14:07.693Z,20.63
2018-03-28T18:16:35.937Z,21.43
2018-03-28T18:19:04.176Z,20.90
2018-03-28T18:21:32.492Z,21.10
2018-03-28T18:24:00.656Z,20.37
2018-03-28T18:26:28.919Z,21.40
2018-03-28T18:28:57.144Z,20.37
2018-03-28T18:31:25.409Z,21.73
2018-03-28T18:33:54.396Z,21.43
2018-03-28T18:36:22.739Z,23.30
2018-03-28T18:38:50.949Z,24.03
2018-03-28T18:41:19.182Z,23.37
2018-03-28T18:43:47.440Z,24.80
2018-03-28T18:46:15.668Z,25.80
2018-03-28T18:48:43.914Z,24.77
2018-03-28T18:51:12.917Z,25.53
2018-03-28T18:53:41.936Z,25.13
2018-03-28T18:56:10.160Z,26.93
2018-03-28T18:58:38.416Z,28.60
2018-03-28T19:01:06.661Z,28.77
2018-03-28T19:03:34.911Z,29.47
2018-03-28T19:06:03.908Z,28.17
2018-03-28T19:08:32.160Z,30.10
2018-03-28T19:11:01.190Z,29.70
2018-03-28T19:13:29.444Z,30.33
2018-03-28T19:15:58.443Z,30.10
2018-03-28T19:18:26.896Z,30.97
2018-03-28T19:20:55.137Z,30.30
2018-03-28T19:23:24.133Z,31.53
2018-03-28T19:25:52.417Z,31.23
2018-03-28T19:28:20.621Z,32.57
2018-03-28T19:30:49.721Z,31.73
2018-03-28T19:33:17.920Z,29.90
2018-03-28T19:35:46.176Z,32.60
2018-03-28T19:38:15.164Z,32.07
2018-03-28T19:40:43.453Z,32.93
2018-03-28T19:43:11.684Z,31.73
2018-03-28T19:45:39.945Z,32.93
2018-03-28T19:48:08.181Z,32.73
2018-03-28T19:50:36.429Z,33.47
2018-03-28T19:53:05.447Z,34.07
2018-03-28T19:55:33.675Z,34.53
2018-03-28T19:58:02.668Z,35.90
2018-03-28T20:00:31.708Z,35.47
2018-03-28T20:02:59.920Z,36.17
2018-03-28T20:05:28.184Z,36.97
2018-03-28T20:07:56.424Z,37.60
2018-03-28T20:10:24.686Z,36.73
2018-03-28T20:12:53.681Z,37.13
2018-03-28T20:15:22.232Z,36.87
2018-03-28T20:17:50.708Z,36.40
2018-03-28T20:20:18.941Z,36.43
2018-03-28T20:22:47.281Z,36.43
2018-03-28T20:25:15.488Z,36.07
2018-03-28T20:27:43.740Z,35.50
2018-03-28T20:30:12.049Z,36.30
2018-03-28T20:32:40.290Z,36.83
2018-03-28T20:35:08.523Z,38.80
2018-03-28T20:37:36.767Z,36.87
2018-03-28T20:40:04.999Z,36.63
2018-03-28T20:42:33.246Z,37.10
2018-03-28T20:45:01.477Z,34.40
2018-03-28T20:47:29.728Z,35.37
2018-03-28T20:49:58.384Z,33.60
2018-03-28T20:52:27.391Z,33.73
2018-03-28T20:54:55.629Z,34.07
2018-03-28T20:57:23.868Z,33.10
2018-03-28T20:59:52.116Z,33.93
2018-03-28T21:02:20.344Z,33.00
2018-03-28T21:04:48.597Z,33.60
2018-03-28T21:07:16.824Z,32.17
2018-03-28T21:09:45.914Z,32.23
2018-03-28T21:12:14.919Z,31.00
2018-03-28T21:14:43.191Z,30.80
2018-03-28T21:17:11.435Z,30.57
2018-03-28T21:19:39.677Z,31.30
2018-03-28T21:22:07.904Z,33.83
2018-03-28T21:24:36.925Z,31.30
2018-03-28T21:27:05.150Z,32.00
2018-03-28T21:29:33.392Z,31.87
2018-03-28T21:32:01.626Z,31.03
2018-03-28T21:34:29.856Z,35.90
2018-03-28T21:36:58.099Z,31.37
2018-03-28T21:39:26.328Z,31.10
2018-03-28T21:41:58.347Z,30.07
2018-03-28T21:44:26.584Z,30.63
2018-03-28T21:46:54.842Z,29.37
2018-03-28T21:49:23.832Z,27.43
2018-03-28T21:51:52.839Z,27.23
2018-03-28T21:54:21.071Z,23.77
2018-03-28T21:56:49.393Z,23.07
2018-03-28T21:59:17.620Z,22.40
2018-03-28T22:01:45.868Z,22.47
2018-03-28T22:04:14.097Z,19.93
2018-03-28T22:06:43.196Z,20.77
2018-03-28T22:09:11.402Z,20.23
2018-03-28T22:11:39.644Z,20.17
2018-03-28T22:14:08.648Z,20.23
2018-03-28T22:16:36.897Z,21.93
2018-03-28T22:19:05.888Z,21.67
2018-03-28T22:21:34.916Z,21.60
2018-03-28T22:24:03.174Z,22.50
2018-03-28T22:26:31.391Z,21.70
2018-03-28T22:28:59.637Z,21.13
2018-03-28T22:31:27.944Z,16.33
2018-03-28T22:33:56.184Z,13.57
2018-03-28T22:36:24.426Z,10.83
2018-03-28T22:38:53.436Z,9.93
2018-03-28T22:41:22.428Z,10.33
2018-03-28T22:43:50.676Z,9.83
2018-03-28T22:46:18.898Z,9.63
2018-03-28T22:48:47.139Z,10.67
2018-03-28T22:51:16.357Z,10.30
2018-03-28T22:53:44.605Z,13.00
2018-03-28T22:56:12.836Z,11.83
2018-03-28T22:58:41.196Z,11.87
2018-03-28T23:01:09.432Z,12.83
2018-03-28T23:03:38.448Z,13.33
2018-03-28T23:06:06.679Z,15.03
2018-03-28T23:08:34.925Z,14.87
2018-03-28T23:11:03.158Z,14.53
2018-03-28T23:13:31.412Z,15.43
2018-03-28T23:16:00.407Z,14.60
2018-03-28T23:18:29.412Z,12.33
2018-03-28T23:20:57.641Z,9.03
2018-03-28T23:23:25.874Z,7.40
2018-03-28T23:25:54.091Z,7.37
2018-03-28T23:28:22.319Z,8.63
2018-03-28T23:30:50.551Z,7.83
2018-03-28T23:33:18.780Z,8.20
2018-03-28T23:35:47.007Z,8.27
2018-03-28T23:38:15.255Z,8.70
2018-03-28T23:40:43.572Z,8.93
2018-03-28T23:43:12.568Z,10.10
2018-03-28T23:45:40.804Z,9.00
2018-03-28T23:48:10.664Z,7.77
2018-03-28T23:50:38.911Z,8.33
2018-03-28T23:53:07.133Z,6.77
2018-03-28T23:55:35.368Z,6.93
2018-03-28T23:58:04.360Z,6.10
